Time;durP1;ratioP1;P1;durP2;ratioP2;P2;SDS_P1;SDS_P2;PMS_P1;PMS_P2;Temp;Humidity;BMP_temperature;BMP_pressure;BME280_temperature;BME280_humidity;BME280_pressure;Samples;Min_cycle;Max_cycle;Signal;HPM_P1;HPM_P2
2023/01/24 00:01:20;;;;;;;4.28;1.00;;;26.00;99.90;;;;;;5052245;28;20569;-79
2023/01/24 00:03:51;;;;;;;3.67;0.80;;;25.90;99.90;;;;;;5050560;28;20215;-79
2023/01/24 00:06:23;;;;;;;5.68;1.10;;;26.00;99.90;;;;;;5050414;28;20212;-80
2023/01/24 00:08:55;;;;;;;4.68;1.10;;;25.90;99.90;;;;;;5050684;28;20645;-79
2023/01/24 00:11:28;;;;;;;3.05;0.90;;;25.90;99.90;;;;;;5043108;28;20247;-80
2023/01/24 00:13:59;;;;;;;3.95;1.00;;;25.90;99.90;;;;;;5042616;28;20664;-79
2023/01/24 00:16:30;;;;;;;4.07;1.00;;;25.90;99.90;;;;;;5042067;28;20659;-79
2023/01/24 00:19:01;;;;;;;4.50;1.00;;;26.00;99.90;;;;;;5036963;28;20222;-80
2023/01/24 00:21:32;;;;;;;4.47;1.20;;;26.00;99.90;;;;;;5052055;28;20315;-81
2023/01/24 00:24:03;;;;;;;3.63;1.00;;;26.00;99.90;;;;;;5046954;28;20217;-80
2023/01/24 00:26:36;;;;;;;3.63;0.88;;;26.00;99.90;;;;;;5032061;28;20233;-80
2023/01/24 00:29:07;;;;;;;4.32;1.08;;;26.00;99.90;;;;;;5038375;28;20587;-80
2023/01/24 00:31:38;;;;;;;3.15;0.70;;;26.00;99.90;;;;;;5051643;28;20208;-81
2023/01/24 00:34:09;;;;;;;3.83;1.13;;;26.10;99.90;;;;;;5036021;28;20677;-79
2023/01/24 00:36:40;;;;;;;5.55;0.82;;;26.20;99.90;;;;;;5045573;28;20647;-80
2023/01/24 00:39:11;;;;;;;6.13;1.05;;;26.20;99.90;;;;;;5050399;28;20672;-80
2023/01/24 00:41:44;;;;;;;7.07;0.90;;;26.30;99.90;;;;;;5046467;28;20721;-80
2023/01/24 00:44:15;;;;;;;4.75;0.90;;;26.30;99.90;;;;;;5038153;28;20192;-80
2023/01/24 00:46:46;;;;;;;6.53;1.10;;;26.20;99.90;;;;;;5048870;28;20207;-80
2023/01/24 00:49:18;;;;;;;4.70;1.10;;;26.30;99.90;;;;;;5051997;28;20224;-80
2023/01/24 00:51:49;;;;;;;5.18;1.20;;;26.30;99.90;;;;;;5046930;28;20542;-79
2023/01/24 00:54:20;;;;;;;6.25;1.17;;;26.40;99.90;;;;;;5058624;28;20189;-80
2023/01/24 00:56:52;;;;;;;6.93;1.23;;;26.50;99.90;;;;;;5054802;28;20248;-80
2023/01/24 00:59:23;;;;;;;6.47;1.48;;;26.60;99.90;;;;;;5043313;28;20239;-79
2023/01/24 01:01:54;;;;;;;3.78;1.00;;;26.70;99.90;;;;;;5048217;28;20212;-80
2023/01/24 01:04:26;;;;;;;5.18;1.23;;;26.80;99.90;;;;;;5043533;28;20217;-82
2023/01/24 01:06:56;;;;;;;3.67;1.05;;;26.80;99.90;;;;;;5053507;28;20216;-81
2023/01/24 01:09:30;;;;;;;6.25;1.40;;;26.80;99.90;;;;;;5057357;28;20256;-82
2023/01/24 01:12:04;;;;;;;4.40;1.45;;;26.70;99.90;;;;;;5054780;28;20607;-81
2023/01/24 01:14:36;;;;;;;3.92;1.02;;;26.70;99.90;;;;;;5062390;28;20264;-83
2023/01/24 01:17:10;;;;;;;3.65;1.02;;;26.80;99.90;;;;;;5054672;28;20207;-83
2023/01/24 01:19:41;;;;;;;4.45;1.20;;;26.70;99.90;;;;;;5064268;28;20193;-83
2023/01/24 01:22:16;;;;;;;3.72;1.02;;;26.70;99.90;;;;;;5056099;28;20223;-82
2023/01/24 01:24:48;;;;;;;4.35;0.90;;;26.80;99.90;;;;;;5064266;28;20208;-82
2023/01/24 01:27:23;;;;;;;4.65;1.20;;;26.80;99.90;;;;;;5056234;28;20269;-83
2023/01/24 01:29:57;;;;;;;5.13;1.13;;;26.70;99.90;;;;;;5057203;28;20356;-83
2023/01/24 01:32:29;;;;;;;3.22;1.17;;;26.60;99.90;;;;;;5062148;28;20232;-83
2023/01/24 01:35:01;;;;;;;5.28;1.23;;;26.50;99.90;;;;;;5061110;28;20197;-83
2023/01/24 01:37:33;;;;;;;4.22;1.40;;;26.60;99.90;;;;;;5059850;28;20231;-83
2023/01/24 01:40:07;;;;;;;5.55;1.27;;;26.50;99.90;;;;;;5054902;28;20224;-82
2023/01/24 01:42:59;;;;;;;4.90;1.20;;;26.50;99.90;;;;;;5064408;28;20218;-82
2023/01/24 01:45:48;;;;;;;4.60;1.40;;;26.60;99.90;;;;;;5064629;28;20276;-80
2023/01/24 01:48:30;;;;;;;9.05;1.20;;;26.80;99.90;;;;;;5065429;28;20197;-82
2023/01/24 01:51:06;;;;;;;3.42;1.17;;;26.80;99.90;;;;;;5059736;28;20226;-82
2023/01/24 01:53:42;;;;;;;4.65;1.38;;;26.90;99.90;;;;;;5060485;28;20196;-82
2023/01/24 01:56:17;;;;;;;3.25;0.90;;;27.00;99.90;;;;;;5054984;28;20199;-81
2023/01/24 01:58:50;;;;;;;3.78;1.13;;;27.00;99.90;;;;;;5060501;28;20283;-81
2023/01/24 02:01:21;;;;;;;2.50;0.77;;;27.10;99.90;;;;;;5070749;28;20224;-81
2023/01/24 02:03:57;;;;;;;5.25;1.40;;;27.20;99.90;;;;;;5051349;28;20269;-81
2023/01/24 02:06:42;;;;;;;9.70;1.15;;;27.20;99.90;;;;;;5055682;28;20219;-81
2023/01/24 02:09:15;;;;;;;3.70;0.85;;;27.20;99.90;;;;;;5028787;28;20224;-82
2023/01/24 02:11:49;;;;;;;4.13;1.15;;;27.20;99.90;;;;;;5016638;28;20706;-83
2023/01/24 02:17:11;;;;;;;4.65;1.25;;;27.20;99.90;;;;;;5037099;28;20199;-82
2023/01/24 02:20:06;;;;;;;3.72;0.98;;;27.10;99.90;;;;;;5034261;28;20201;-82
2023/01/24 02:22:46;;;;;;;5.88;1.20;;;27.10;99.90;;;;;;5022341;28;20676;-81
2023/01/24 02:25:24;;;;;;;1.95;0.93;;;27.10;99.90;;;;;;5043519;28;20339;-82
2023/01/24 02:27:59;;;;;;;4.53;1.10;;;27.10;99.90;;;;;;5035869;28;20196;-81
2023/01/24 02:30:31;;;;;;;4.43;1.00;;;27.20;99.90;;;;;;5031028;28;20307;-81
2023/01/24 02:33:10;;;;;;;5.72;1.00;;;27.20;99.90;;;;;;5034565;28;20251;-81
2023/01/24 02:35:41;;;;;;;7.22;1.33;;;27.30;99.90;;;;;;5032768;28;20590;-82
2023/01/24 02:38:19;;;;;;;4.65;0.73;;;27.30;99.90;;;;;;5040603;28;20399;-82
2023/01/24 02:40:52;;;;;;;4.65;1.00;;;27.20;99.90;;;;;;5039072;28;20637;-82
2023/01/24 02:43:28;;;;;;;4.30;0.90;;;27.20;99.90;;;;;;5041030;28;20229;-81
2023/01/24 02:45:59;;;;;;;3.75;0.80;;;27.20;99.90;;;;;;5033743;28;20292;-81
2023/01/24 02:48:30;;;;;;;5.22;1.13;;;27.10;99.90;;;;;;5039493;28;20228;-83
2023/01/24 02:53:48;;;;;;;4.03;0.95;;;27.20;99.90;;;;;;5028441;28;20292;-83
2023/01/24 02:59:08;;;;;;;4.05;0.80;;;27.20;99.90;;;;;;5040336;28;20267;-81
2023/01/24 03:01:40;;;;;;;5.78;1.13;;;27.20;99.90;;;;;;5033023;28;21264;-82
2023/01/24 03:04:21;;;;;;;4.85;1.00;;;27.30;99.90;;;;;;5039807;28;20339;-82
2023/01/24 03:06:52;;;;;;;4.07;1.15;;;27.30;99.90;;;;;;5038507;28;20233;-82
2023/01/24 03:09:33;;;;;;;3.70;1.00;;;27.30;99.90;;;;;;5051770;28;20204;-83
2023/01/24 03:34:33;;;;;;;3.85;1.38;;;28.00;99.90;;;;;;5051311;28;20203;-82
2023/01/24 03:37:05;;;;;;;3.15;1.20;;;28.00;99.90;;;;;;5050878;28;20200;-82
2023/01/24 03:42:22;;;;;;;4.50;1.35;;;28.10;99.90;;;;;;5048041;28;20275;-81
2023/01/24 03:44:53;;;;;;;3.92;1.30;;;28.00;99.90;;;;;;5045988;28;20215;-81
2023/01/24 03:47:26;;;;;;;2.22;1.10;;;27.90;99.90;;;;;;5042043;28;20662;-81
2023/01/24 03:52:43;;;;;;;4.45;1.30;;;27.90;99.90;;;;;;5032708;28;20263;-81
2023/01/24 03:55:14;;;;;;;4.47;1.38;;;27.90;99.90;;;;;;5041453;28;20586;-81
2023/01/24 03:57:45;;;;;;;2.00;1.35;;;27.90;99.90;;;;;;5049424;28;20201;-80
2023/01/24 04:00:17;;;;;;;3.90;1.40;;;27.90;99.90;;;;;;5048188;28;20201;-80
2023/01/24 04:02:50;;;;;;;7.03;1.50;;;27.90;99.90;;;;;;5045715;28;20250;-81
2023/01/24 04:05:22;;;;;;;5.50;1.50;;;28.00;99.90;;;;;;5050887;28;20283;-81
2023/01/24 04:07:56;;;;;;;3.03;1.63;;;28.00;99.90;;;;;;5047829;28;20339;-82
2023/01/24 04:10:27;;;;;;;3.03;1.40;;;28.10;99.90;;;;;;5056412;28;20346;-82
2023/01/24 04:12:58;;;;;;;5.68;1.80;;;28.10;99.90;;;;;;5042371;28;20260;-81
2023/01/24 04:15:31;;;;;;;4.72;2.03;;;28.20;99.90;;;;;;5054963;28;20211;-81
2023/01/24 04:21:29;;;;;;;3.08;1.98;;;28.20;99.90;;;;;;5026833;28;20197;-81
2023/01/24 04:24:01;;;;;;;4.90;2.42;;;28.10;99.90;;;;;;5048883;28;20303;-81
2023/01/24 04:26:32;;;;;;;5.60;2.53;;;28.10;99.90;;;;;;5052580;28;20207;-81
2023/01/24 04:29:03;;;;;;;3.85;2.80;;;28.00;99.90;;;;;;5048398;28;20865;-79
2023/01/24 04:31:34;;;;;;;4.95;2.78;;;28.00;99.90;;;;;;5058482;28;20228;-82
2023/01/24 04:34:04;;;;;;;3.63;2.40;;;28.00;99.90;;;;;;5048701;28;20189;-81
2023/01/24 04:36:37;;;;;;;4.72;2.78;;;28.00;99.90;;;;;;5054390;28;20203;-82
2023/01/24 04:39:08;;;;;;;4.25;2.80;;;28.00;99.90;;;;;;5051450;28;20200;-81
2023/01/24 04:41:41;;;;;;;2.90;2.45;;;28.00;99.90;;;;;;5049702;28;20744;-82
2023/01/24 04:44:12;;;;;;;4.07;2.63;;;28.00;99.90;;;;;;5049441;28;20221;-81
2023/01/24 04:46:43;;;;;;;4.60;3.00;;;28.10;99.90;;;;;;5060518;28;20211;-81
2023/01/24 04:49:14;;;;;;;6.13;2.53;;;28.10;99.90;;;;;;5056640;28;20203;-80
2023/01/24 04:51:51;;;;;;;4.72;2.85;;;28.00;99.90;;;;;;5052770;28;20265;-81
2023/01/24 04:54:22;;;;;;;5.40;2.88;;;28.10;99.90;;;;;;5050614;28;20252;-81
2023/01/24 04:56:54;;;;;;;5.75;2.05;;;28.30;99.90;;;;;;5035426;28;20193;-81
2023/01/24 04:59:26;;;;;;;5.75;2.20;;;28.30;99.90;;;;;;5044031;28;20678;-82
2023/01/24 05:01:57;;;;;;;4.18;2.90;;;28.30;99.90;;;;;;5045019;28;20671;-82
2023/01/24 05:04:28;;;;;;;2.67;2.00;;;28.30;99.90;;;;;;5034895;28;20277;-82
2023/01/24 05:07:03;;;;;;;3.08;2.40;;;28.30;99.90;;;;;;5037647;28;20232;-81
2023/01/24 05:09:34;;;;;;;4.60;2.15;;;28.50;99.90;;;;;;5056923;28;20196;-82
2023/01/24 05:12:05;;;;;;;4.07;2.00;;;28.60;99.90;;;;;;5049524;28;20311;-83
2023/01/24 05:14:36;;;;;;;3.63;2.40;;;28.60;99.90;;;;;;5056888;28;20223;-81
2023/01/24 05:17:07;;;;;;;3.45;1.90;;;28.70;99.90;;;;;;5066592;28;21480;-83
2023/01/24 05:19:39;;;;;;;2.80;1.52;;;28.80;99.90;;;;;;5051643;28;20284;-81
2023/01/24 05:22:11;;;;;;;2.75;2.00;;;28.80;99.90;;;;;;5048014;28;20248;-81
2023/01/24 05:24:49;;;;;;;5.40;1.95;;;28.90;99.90;;;;;;5040581;28;20291;-81
2023/01/24 05:27:24;;;;;;;5.45;1.95;;;29.00;99.90;;;;;;5050221;28;20207;-81
2023/01/24 05:29:56;;;;;;;3.20;1.70;;;29.00;99.90;;;;;;5052889;28;20275;-82
2023/01/24 05:32:27;;;;;;;2.38;1.42;;;29.10;99.90;;;;;;5063090;28;20216;-82
2023/01/24 05:35:18;;;;;;;4.18;1.85;;;29.20;99.90;;;;;;5061569;28;20232;-80
2023/01/24 05:37:54;;;;;;;3.17;1.90;;;29.40;99.90;;;;;;5044596;28;20224;-82
2023/01/24 05:40:36;;;;;;;3.35;2.25;;;29.40;99.90;;;;;;5036159;28;20217;-87
2023/01/24 05:43:08;;;;;;;7.18;2.42;;;29.40;99.90;;;;;;5052029;28;20221;-81
2023/01/24 05:45:39;;;;;;;2.88;2.20;;;29.20;99.90;;;;;;5051297;28;20279;-81
2023/01/24 05:48:10;;;;;;;4.00;1.90;;;29.40;99.90;;;;;;5047050;28;20582;-80
2023/01/24 05:50:41;;;;;;;2.35;1.15;;;29.60;99.90;;;;;;5048253;28;20236;-83
2023/01/24 05:53:14;;;;;;;3.80;1.30;;;29.70;99.90;;;;;;5046900;28;20287;-82
2023/01/24 05:55:45;;;;;;;3.20;1.40;;;29.70;99.90;;;;;;5035190;28;20195;-81
2023/01/24 05:58:16;;;;;;;1.98;1.10;;;30.00;99.90;;;;;;5048225;28;20222;-83
2023/01/24 06:00:47;;;;;;;3.20;1.10;;;30.10;99.90;;;;;;5048436;28;20246;-84
2023/01/24 06:03:18;;;;;;;3.88;1.00;;;30.30;99.90;;;;;;5044953;28;20284;-83
2023/01/24 06:05:51;;;;;;;2.65;1.10;;;30.40;99.90;;;;;;5049017;28;20203;-83
2023/01/24 06:08:24;;;;;;;2.83;1.00;;;30.60;99.90;;;;;;5034502;28;20235;-83
2023/01/24 06:10:55;;;;;;;3.13;1.05;;;30.60;99.90;;;;;;5025432;28;20718;-82
2023/01/24 06:13:26;;;;;;;3.47;1.20;;;30.50;99.90;;;;;;5022850;28;20675;-82
2023/01/24 06:16:05;;;;;;;3.63;1.25;;;30.50;99.90;;;;;;5029690;28;20268;-82
2023/01/24 06:18:36;;;;;;;3.15;0.90;;;30.90;99.90;;;;;;5029543;28;20204;-83
2023/01/24 06:21:16;;;;;;;2.42;0.90;;;31.20;99.90;;;;;;5034152;28;20202;-83
2023/01/24 06:23:50;;;;;;;4.75;1.02;;;31.40;99.90;;;;;;5039092;28;20220;-83
2023/01/24 06:26:21;;;;;;;2.40;0.93;;;31.70;99.90;;;;;;5024019;28;20693;-80
2023/01/24 06:28:52;;;;;;;3.20;1.13;;;31.80;99.90;;;;;;5023976;28;20221;-81
2023/01/24 06:31:33;;;;;;;1.95;1.00;;;32.00;99.90;;;;;;5033478;28;20221;-81
2023/01/24 06:34:23;;;;;;;2.78;0.77;;;32.10;99.90;;;;;;5029563;28;20276;-81
2023/01/24 06:37:04;;;;;;;1.70;0.90;;;32.20;99.90;;;;;;5043214;28;20269;-81
2023/01/24 06:39:37;;;;;;;3.40;0.90;;;32.10;99.90;;;;;;5016460;28;20208;-81
2023/01/24 06:42:08;;;;;;;3.38;0.95;;;31.90;99.90;;;;;;5015418;28;20241;-80
2023/01/24 06:44:40;;;;;;;2.60;1.05;;;32.10;99.90;;;;;;5015381;28;20685;-81
2023/01/24 06:47:13;;;;;;;3.17;0.80;;;32.20;99.90;;;;;;5030789;28;20624;-81
2023/01/24 06:49:44;;;;;;;3.70;0.98;;;32.00;99.90;;;;;;5032492;28;20212;-81
2023/01/24 06:52:15;;;;;;;1.92;0.80;;;32.20;99.90;;;;;;5032637;28;20221;-81
2023/01/24 06:54:48;;;;;;;1.15;0.70;;;32.00;99.90;;;;;;5027988;28;20182;-82
2023/01/24 06:57:19;;;;;;;2.17;0.80;;;32.20;99.90;;;;;;5020788;28;20276;-82
2023/01/24 06:59:52;;;;;;;3.13;0.80;;;32.40;99.90;;;;;;5022389;28;20194;-81
2023/01/24 07:02:26;;;;;;;1.23;0.73;;;32.70;99.90;;;;;;5033361;28;20200;-81
2023/01/24 07:04:57;;;;;;;2.20;0.63;;;32.90;99.90;;;;;;5032667;28;20288;-81
2023/01/24 07:07:28;;;;;;;1.67;0.65;;;33.10;99.90;;;;;;5038476;28;20231;-81
2023/01/24 07:10:01;;;;;;;2.17;0.80;;;33.20;99.90;;;;;;5054138;28;20207;-82
2023/01/24 07:12:34;;;;;;;1.73;0.70;;;33.50;99.90;;;;;;5053374;28;20217;-82
2023/01/24 07:15:05;;;;;;;2.63;0.55;;;33.50;99.90;;;;;;5054474;28;20287;-81
2023/01/24 07:17:37;;;;;;;2.53;0.60;;;33.70;99.90;;;;;;5049239;28;20276;-82
2023/01/24 07:20:09;;;;;;;1.15;0.68;;;34.00;99.90;;;;;;5041794;28;20201;-82
2023/01/24 07:22:42;;;;;;;1.05;0.70;;;34.00;99.90;;;;;;5052501;28;20287;-82
2023/01/24 07:25:21;;;;;;;3.67;0.90;;;34.00;99.90;;;;;;5054059;28;20598;-82
2023/01/24 07:27:52;;;;;;;2.17;0.50;;;33.80;99.90;;;;;;5047575;28;20197;-81
2023/01/24 07:30:23;;;;;;;2.20;0.90;;;33.30;99.90;;;;;;5057941;28;20200;-80
2023/01/24 07:32:54;;;;;;;1.63;0.75;;;33.40;99.90;;;;;;5046444;28;20320;-82
2023/01/24 07:35:25;;;;;;;2.78;0.70;;;33.60;99.90;;;;;;5040457;28;20208;-81
2023/01/24 07:37:59;;;;;;;1.83;0.68;;;33.60;99.90;;;;;;5047546;28;20197;-80
2023/01/24 07:40:32;;;;;;;2.08;0.65;;;33.60;99.90;;;;;;5063340;28;20261;-81
2023/01/24 07:43:03;;;;;;;1.80;0.60;;;33.50;99.90;;;;;;5051839;28;20299;-81
2023/01/24 07:45:37;;;;;;;1.55;0.60;;;33.30;99.90;;;;;;5054951;28;20207;-82
2023/01/24 07:48:10;;;;;;;3.10;0.65;;;32.90;99.90;;;;;;5054210;28;20394;-81
2023/01/24 07:50:43;;;;;;;1.92;0.73;;;32.60;99.90;;;;;;5053791;28;20760;-82
2023/01/24 07:53:14;;;;;;;1.83;0.73;;;32.60;99.90;;;;;;5052178;28;20232;-82
2023/01/24 07:55:51;;;;;;;1.13;0.68;;;32.50;99.90;;;;;;5043652;28;20256;-84
2023/01/24 07:58:22;;;;;;;2.40;0.75;;;32.10;99.90;;;;;;5042751;28;20196;-82
2023/01/24 08:00:53;;;;;;;2.95;0.90;;;31.60;99.90;;;;;;5056160;28;20247;-81
2023/01/24 08:03:28;;;;;;;2.40;1.00;;;31.10;99.90;;;;;;5055477;28;20192;-82
2023/01/24 08:05:59;;;;;;;1.15;0.70;;;30.50;99.90;;;;;;5053978;28;20232;-81
2023/01/24 08:08:31;;;;;;;3.33;1.20;;;30.40;99.90;;;;;;5050662;28;20224;-81
2023/01/24 08:11:05;;;;;;;1.38;0.95;;;30.30;99.90;;;;;;5050868;28;20203;-81
2023/01/24 08:13:36;;;;;;;3.65;1.20;;;30.00;99.90;;;;;;5038086;28;20193;-81
2023/01/24 08:16:10;;;;;;;2.05;0.80;;;29.90;99.90;;;;;;5050835;28;20651;-81
2023/01/24 08:18:43;;;;;;;1.83;0.70;;;29.50;99.90;;;;;;5051207;28;20279;-81
2023/01/24 08:21:14;;;;;;;3.38;0.90;;;29.30;99.90;;;;;;5043654;28;20208;-81
2023/01/24 08:23:45;;;;;;;3.13;1.10;;;29.00;99.90;;;;;;5048608;28;20193;-81
2023/01/24 08:26:18;;;;;;;2.58;1.20;;;28.60;99.90;;;;;;5035035;28;20198;-81
2023/01/24 08:28:49;;;;;;;2.55;1.30;;;28.30;99.90;;;;;;5047846;28;20197;-81
2023/01/24 08:31:20;;;;;;;3.40;1.20;;;28.00;99.90;;;;;;5036828;28;20297;-79
2023/01/24 08:33:51;;;;;;;2.72;1.17;;;27.80;99.90;;;;;;5053067;28;20687;-80
2023/01/24 08:36:23;;;;;;;2.63;1.13;;;27.70;99.90;;;;;;5051809;28;20212;-80
2023/01/24 08:38:54;;;;;;;4.10;1.42;;;27.60;99.90;;;;;;5054790;28;20200;-80
2023/01/24 08:41:27;;;;;;;4.82;1.27;;;27.50;99.90;;;;;;5053573;28;20231;-82
2023/01/24 08:43:58;;;;;;;3.50;1.20;;;27.40;99.90;;;;;;5044497;28;20201;-80
2023/01/24 08:46:31;;;;;;;3.30;1.10;;;27.30;99.90;;;;;;5051196;28;20200;-81
2023/01/24 08:49:02;;;;;;;4.25;1.30;;;27.20;99.90;;;;;;5050094;28;20196;-81
2023/01/24 08:51:33;;;;;;;6.38;1.30;;;27.10;99.90;;;;;;5049643;28;20567;-81
2023/01/24 08:54:04;;;;;;;5.70;1.30;;;27.10;99.90;;;;;;5044629;28;20219;-81
2023/01/24 08:56:37;;;;;;;3.83;1.25;;;27.00;99.90;;;;;;5042316;28;20541;-81
2023/01/24 08:59:11;;;;;;;6.65;1.65;;;26.80;99.90;;;;;;5049044;28;20197;-82
2023/01/24 09:01:42;;;;;;;2.55;1.02;;;26.80;99.90;;;;;;5051608;28;20311;-83
2023/01/24 09:04:15;;;;;;;3.50;1.50;;;26.80;99.90;;;;;;5047015;28;20221;-84
2023/01/24 09:06:46;;;;;;;3.80;1.10;;;26.70;99.90;;;;;;5043163;28;20651;-83
2023/01/24 09:09:18;;;;;;;4.72;1.35;;;26.60;99.90;;;;;;5016391;28;20287;-82
2023/01/24 09:11:52;;;;;;;3.50;1.17;;;26.60;99.90;;;;;;5024826;28;20638;-82
2023/01/24 09:14:23;;;;;;;4.43;1.35;;;26.50;99.90;;;;;;5021293;28;20268;-82
2023/01/24 09:16:54;;;;;;;6.78;1.35;;;26.40;99.90;;;;;;5032239;28;20191;-82
2023/01/24 09:19:26;;;;;;;3.08;0.93;;;26.30;99.90;;;;;;5040624;28;20231;-83
2023/01/24 09:22:00;;;;;;;3.58;1.20;;;26.30;99.90;;;;;;5033603;28;20221;-84
2023/01/24 09:24:31;;;;;;;3.67;1.17;;;26.30;99.90;;;;;;5017306;28;20200;-83
2023/01/24 09:27:08;;;;;;;4.40;1.20;;;26.20;99.90;;;;;;5022451;28;20192;-83
2023/01/24 09:29:39;;;;;;;4.30;1.00;;;26.20;99.90;;;;;;5012961;28;20695;-83
2023/01/24 09:32:10;;;;;;;4.38;1.15;;;26.20;99.90;;;;;;5012999;28;20222;-83
2023/01/24 09:34:46;;;;;;;3.60;1.10;;;26.10;99.90;;;;;;5028226;28;20212;-82
2023/01/24 09:37:45;;;;;;;4.65;1.10;;;26.10;99.90;;;;;;5044536;28;20205;-84
2023/01/24 09:40:25;;;;;;;5.25;1.13;;;26.10;99.90;;;;;;5028777;28;20182;-83
2023/01/24 09:43:04;;;;;;;6.57;1.55;;;26.10;99.90;;;;;;5028097;28;20648;-83
2023/01/24 09:45:39;;;;;;;5.25;1.30;;;26.10;99.90;;;;;;5021061;28;20190;-84
2023/01/24 09:48:15;;;;;;;6.63;1.25;;;26.10;99.90;;;;;;5025675;28;20201;-84
2023/01/24 09:50:51;;;;;;;5.35;1.20;;;26.10;99.90;;;;;;5032351;28;20632;-84
2023/01/24 09:53:25;;;;;;;4.07;1.10;;;26.10;99.90;;;;;;5021940;28;20231;-83
2023/01/24 09:56:00;;;;;;;2.97;1.00;;;26.10;99.90;;;;;;5009497;28;20208;-84
2023/01/24 09:58:39;;;;;;;3.33;0.88;;;26.00;99.90;;;;;;5009451;28;20578;-84
2023/01/24 10:01:14;;;;;;;4.40;1.00;;;26.10;99.90;;;;;;5005362;28;20631;-84
2023/01/24 10:03:46;;;;;;;5.25;1.30;;;26.10;99.90;;;;;;5017562;28;20854;-82
2023/01/24 10:06:25;;;;;;;4.90;1.20;;;26.20;99.90;;;;;;5013838;28;20764;-83
2023/01/24 10:09:03;;;;;;;3.67;1.40;;;26.20;99.90;;;;;;5028778;28;20255;-84
2023/01/24 10:11:51;;;;;;;4.85;1.38;;;26.20;99.90;;;;;;5026710;28;20200;-83
2023/01/24 10:14:47;;;;;;;3.47;1.13;;;26.20;99.90;;;;;;5030034;28;21383;-85
2023/01/24 10:17:42;;;;;;;2.35;0.85;;;26.20;99.90;;;;;;5026875;28;20206;-83
2023/01/24 10:20:38;;;;;;;4.75;1.20;;;26.20;99.90;;;;;;5027887;28;20230;-83
2023/01/24 10:23:14;;;;;;;4.65;1.40;;;26.10;99.90;;;;;;5031343;28;20205;-84
2023/01/24 10:25:53;;;;;;;7.50;1.73;;;26.10;99.90;;;;;;5027350;28;20576;-83
2023/01/24 10:28:28;;;;;;;3.88;1.70;;;26.10;99.90;;;;;;5016587;28;20200;-83
2023/01/24 10:31:11;;;;;;;5.20;1.50;;;26.00;99.90;;;;;;5024475;28;20212;-84
2023/01/24 10:33:50;;;;;;;3.95;1.30;;;25.90;99.90;;;;;;5029470;28;20538;-82
2023/01/24 10:36:31;;;;;;;2.38;1.02;;;25.70;99.90;;;;;;5041999;28;20203;-83
2023/01/24 10:39:02;;;;;;;6.90;1.60;;;25.60;99.90;;;;;;5052653;28;20212;-83
2023/01/24 10:41:35;;;;;;;7.07;1.50;;;25.60;99.90;;;;;;5038953;28;20203;-82
2023/01/24 10:44:13;;;;;;;8.00;1.70;;;25.50;99.90;;;;;;5038977;28;20247;-82
2023/01/24 10:47:02;;;;;;;8.75;1.77;;;25.50;99.90;;;;;;5038720;28;20268;-82
2023/01/24 10:49:39;;;;;;;11.10;2.15;;;25.40;99.90;;;;;;5033726;28;20291;-82
2023/01/24 10:52:15;;;;;;;3.72;1.70;;;25.20;99.90;;;;;;5030463;28;20315;-83
2023/01/24 10:54:54;;;;;;;5.15;2.00;;;24.70;99.90;;;;;;5035867;28;20290;-83
2023/01/24 10:57:49;;;;;;;3.25;1.60;;;24.20;99.90;;;;;;5027026;28;20201;-83
2023/01/24 11:00:30;;;;;;;4.70;2.00;;;23.80;99.90;;;;;;5038865;28;20208;-83
2023/01/24 11:03:05;;;;;;;2.38;1.70;;;23.60;99.90;;;;;;5037176;28;20228;-82
2023/01/24 11:05:42;;;;;;;2.55;1.73;;;23.50;99.90;;;;;;5032858;28;20675;-81
2023/01/24 11:08:20;;;;;;;3.75;1.55;;;23.40;99.90;;;;;;5026436;28;20971;-81
2023/01/24 11:10:55;;;;;;;1.98;1.60;;;23.40;99.90;;;;;;5028514;28;20205;-82
2023/01/24 11:13:34;;;;;;;3.85;1.70;;;23.50;99.90;;;;;;5032144;28;20204;-81
2023/01/24 11:16:08;;;;;;;3.38;1.83;;;23.70;99.90;;;;;;5032875;28;20201;-81
2023/01/24 11:18:48;;;;;;;1.95;1.70;;;23.70;99.90;;;;;;5032730;28;20456;-81
2023/01/24 11:21:20;;;;;;;2.83;1.60;;;23.80;99.90;;;;;;5029537;28;20201;-80
2023/01/24 11:24:03;;;;;;;2.03;1.60;;;23.80;99.90;;;;;;5035335;28;20197;-82
2023/01/24 11:26:37;;;;;;;2.35;1.67;;;23.90;99.90;;;;;;5031982;28;20208;-83
2023/01/24 11:29:17;;;;;;;6.53;2.13;;;23.90;99.90;;;;;;5038146;28;20300;-83
2023/01/24 11:31:51;;;;;;;2.33;1.58;;;23.90;99.90;;;;;;5038548;28;20303;-81
2023/01/24 11:34:47;;;;;;;4.35;1.90;;;23.90;99.90;;;;;;5025083;28;20953;-81
2023/01/24 11:37:38;;;;;;;5.10;2.10;;;23.80;99.90;;;;;;5033389;28;20193;-81
2023/01/24 11:40:24;;;;;;;5.40;1.90;;;23.70;99.90;;;;;;5047654;28;20228;-81
2023/01/24 11:43:08;;;;;;;3.08;1.70;;;23.70;99.90;;;;;;5030980;28;20207;-81
2023/01/24 11:45:58;;;;;;;3.00;2.10;;;23.70;99.90;;;;;;5036397;28;20202;-82
2023/01/24 11:48:40;;;;;;;3.10;1.83;;;23.70;99.90;;;;;;5023460;28;20257;-83
2023/01/24 11:51:20;;;;;;;3.97;2.20;;;23.70;99.90;;;;;;5026730;28;20200;-82
2023/01/24 11:54:13;;;;;;;2.65;1.77;;;23.60;99.90;;;;;;5027531;28;20229;-83
2023/01/24 11:56:50;;;;;;;2.38;1.90;;;23.60;99.90;;;;;;5024552;28;20197;-83
2023/01/24 11:59:47;;;;;;;5.10;1.70;;;23.50;99.90;;;;;;5028046;28;20220;-83
2023/01/24 12:02:36;;;;;;;3.58;1.55;;;23.50;99.90;;;;;;5024967;28;20611;-82
2023/01/24 12:05:32;;;;;;;5.22;1.60;;;23.40;99.90;;;;;;5025550;28;20212;-82
2023/01/24 12:08:16;;;;;;;4.07;1.50;;;23.30;99.90;;;;;;5029397;28;20296;-83
2023/01/24 12:10:59;;;;;;;4.05;1.38;;;23.20;99.90;;;;;;5027558;28;20200;-83
2023/01/24 12:13:41;;;;;;;4.32;1.30;;;23.10;99.90;;;;;;5025347;28;20232;-85
2023/01/24 12:16:27;;;;;;;4.60;1.65;;;23.00;99.90;;;;;;5030307;28;20201;-82
2023/01/24 12:19:11;;;;;;;5.30;1.60;;;23.00;99.90;;;;;;5022678;28;20201;-82
2023/01/24 12:21:42;;;;;;;4.88;1.80;;;22.90;99.90;;;;;;5024358;28;20284;-82
2023/01/24 12:24:21;;;;;;;5.43;1.90;;;22.90;99.90;;;;;;5020561;28;20208;-83
2023/01/24 12:26:56;;;;;;;3.15;1.65;;;22.90;99.90;;;;;;5021718;28;20200;-83
2023/01/24 12:29:31;;;;;;;4.15;1.50;;;22.80;99.90;;;;;;5021283;28;20222;-81
2023/01/24 12:32:06;;;;;;;4.82;1.60;;;22.60;99.90;;;;;;5022049;28;20410;-82
2023/01/24 12:34:44;;;;;;;7.75;1.80;;;22.50;99.90;;;;;;5021136;28;20220;-82
2023/01/24 12:37:26;;;;;;;6.60;1.83;;;22.40;99.90;;;;;;5031415;28;20201;-82
2023/01/24 12:40:04;;;;;;;8.30;2.05;;;22.50;99.90;;;;;;5023841;28;20208;-82
2023/01/24 12:42:55;;;;;;;4.45;1.50;;;22.40;99.90;;;;;;5030812;28;20204;-83
2023/01/24 12:45:33;;;;;;;7.85;2.25;;;22.40;99.90;;;;;;5020989;28;20206;-84
2023/01/24 12:48:12;;;;;;;5.60;2.00;;;22.40;99.90;;;;;;5028522;28;20211;-84
2023/01/24 12:50:51;;;;;;;5.38;2.15;;;22.50;99.90;;;;;;5021533;28;20207;-84
2023/01/24 12:53:27;;;;;;;5.43;1.83;;;22.50;99.90;;;;;;5026374;28;20223;-84
2023/01/24 12:56:07;;;;;;;5.20;2.00;;;22.50;99.90;;;;;;5023781;28;20196;-84
2023/01/24 12:58:42;;;;;;;5.05;1.80;;;22.50;99.90;;;;;;5025605;28;21518;-83
2023/01/24 13:01:33;;;;;;;3.90;1.77;;;22.50;99.90;;;;;;5031475;28;20203;-83
2023/01/24 13:04:15;;;;;;;9.02;2.30;;;22.40;99.90;;;;;;5020884;28;20261;-83
2023/01/24 13:07:01;;;;;;;9.77;2.17;;;22.30;99.90;;;;;;5021962;28;20211;-83
2023/01/24 13:09:43;;;;;;;11.60;2.65;;;22.30;99.90;;;;;;5025180;28;20205;-83
2023/01/24 13:12:18;;;;;;;5.53;2.20;;;22.20;99.90;;;;;;5021160;28;20688;-83
2023/01/24 13:14:55;;;;;;;7.53;2.15;;;22.20;99.90;;;;;;5018858;28;21123;-83
2023/01/24 13:17:47;;;;;;;5.22;1.95;;;22.10;99.90;;;;;;5011569;28;20420;-83
2023/01/24 13:20:44;;;;;;;5.30;1.83;;;22.00;99.90;;;;;;5010833;28;20243;-83
2023/01/24 13:23:35;;;;;;;8.35;2.13;;;21.90;99.90;;;;;;5023367;28;20209;-82
2023/01/24 13:26:23;;;;;;;4.60;1.98;;;21.90;99.90;;;;;;5030891;28;20213;-83
2023/01/24 13:29:08;;;;;;;3.25;1.80;;;21.90;99.90;;;;;;5022728;28;20208;-83
2023/01/24 13:31:49;;;;;;;4.72;2.00;;;21.90;99.90;;;;;;5023922;28;20216;-84
2023/01/24 13:34:23;;;;;;;6.65;2.17;;;22.00;99.90;;;;;;5024904;28;20220;-83
2023/01/24 13:36:54;;;;;;;3.33;1.90;;;22.00;99.90;;;;;;5039452;28;20203;-83
2023/01/24 13:39:39;;;;;;;3.80;2.08;;;22.00;99.90;;;;;;5032551;28;20201;-83
2023/01/24 13:42:23;;;;;;;3.95;2.17;;;21.90;99.90;;;;;;5026301;28;20238;-83
2023/01/24 13:44:56;;;;;;;4.55;2.00;;;21.90;99.90;;;;;;5030081;28;20211;-82
2023/01/24 13:47:38;;;;;;;3.20;1.75;;;21.90;99.90;;;;;;5042146;28;21605;-83
2023/01/24 13:50:18;;;;;;;2.42;1.85;;;22.00;99.90;;;;;;5010949;28;20200;-83
2023/01/24 13:52:51;;;;;;;2.40;1.80;;;22.00;99.90;;;;;;5019674;28;20204;-82
2023/01/24 13:56:05;;;;;;;3.17;1.70;;;22.00;99.90;;;;;;5020646;28;20597;-82
2023/01/24 13:58:37;;;;;;;3.97;1.70;;;22.10;99.90;;;;;;5011837;28;20208;-83
2023/01/24 14:01:19;;;;;;;2.75;1.77;;;22.20;99.90;;;;;;5023971;28;20204;-83
2023/01/24 14:03:59;;;;;;;2.70;1.70;;;22.20;99.90;;;;;;5018901;28;20748;-81
2023/01/24 14:06:41;;;;;;;2.42;1.70;;;22.30;99.90;;;;;;5009733;28;20207;-82
2023/01/24 14:09:28;;;;;;;2.47;1.70;;;22.30;99.90;;;;;;5016832;28;20204;-82
2023/01/24 14:12:04;;;;;;;2.63;2.00;;;22.30;99.90;;;;;;5018758;28;20204;-82